createdAt,value
2018-12-19T00:01:35.997Z,1.40
2018-12-19T00:04:04.261Z,1.20
2018-12-19T00:06:32.409Z,1.10
2018-12-19T00:09:03.376Z,1.00
2018-12-19T00:11:30.751Z,1.10
2018-12-19T00:13:59.017Z,1.10
2018-12-19T00:16:29.240Z,1.30
2018-12-19T00:18:57.424Z,1.40
2018-12-19T00:21:25.566Z,1.30
2018-12-19T00:23:53.791Z,1.20
2018-12-19T00:26:22.031Z,1.10
2018-12-19T00:28:50.269Z,1.00
2018-12-19T00:31:18.411Z,0.80
2018-12-19T00:33:46.691Z,1.00
2018-12-19T00:36:14.843Z,1.10
2018-12-19T00:38:43.012Z,1.00
2018-12-19T00:41:11.159Z,1.10
2018-12-19T00:43:39.379Z,1.10
2018-12-19T00:46:07.527Z,1.10
2018-12-19T00:48:35.700Z,1.30
2018-12-19T00:51:03.869Z,1.40
2018-12-19T00:53:32.091Z,1.30
2018-12-19T00:56:00.793Z,1.20
2018-12-19T00:58:29.227Z,1.20
2018-12-19T01:00:57.590Z,1.10
2018-12-19T01:03:25.807Z,1.20
2018-12-19T01:05:53.951Z,1.20
2018-12-19T01:08:22.314Z,0.80
2018-12-19T01:10:50.508Z,1.00
2018-12-19T01:13:18.698Z,0.90
2018-12-19T01:15:47.145Z,0.90
2018-12-19T01:18:15.307Z,1.00
2018-12-19T01:20:43.451Z,0.90
2018-12-19T01:23:11.974Z,0.90
2018-12-19T01:25:40.144Z,1.10
2018-12-19T01:28:08.340Z,1.30
2018-12-19T01:30:36.508Z,1.00
2018-12-19T01:33:04.789Z,0.90
2018-12-19T01:35:33.081Z,1.10
2018-12-19T01:38:01.232Z,1.00
2018-12-19T01:40:29.801Z,0.80
2018-12-19T01:42:58.164Z,0.90
2018-12-19T01:45:26.340Z,0.90
2018-12-19T01:47:54.833Z,0.80
2018-12-19T01:50:23.149Z,0.80
2018-12-19T01:52:51.296Z,0.90
2018-12-19T01:55:19.540Z,1.00
2018-12-19T01:57:47.696Z,0.90
2018-12-19T02:00:16.121Z,1.00
2018-12-19T02:02:44.312Z,1.10
2018-12-19T02:05:13.424Z,1.10
2018-12-19T02:07:41.575Z,1.30
2018-12-19T02:10:09.752Z,1.30
2018-12-19T02:12:38.018Z,1.20
2018-12-19T02:15:06.333Z,1.40
2018-12-19T02:17:34.712Z,1.20
2018-12-19T02:20:03.225Z,1.00
2018-12-19T02:22:31.380Z,1.00
2018-12-19T02:24:59.559Z,1.30
2018-12-19T02:27:27.716Z,1.20
2018-12-19T02:29:56.152Z,1.10
2018-12-19T02:32:24.300Z,1.00
2018-12-19T02:34:52.475Z,1.30
2018-12-19T02:37:20.633Z,1.40
2018-12-19T02:39:48.795Z,1.30
2018-12-19T02:42:17.141Z,1.40
2018-12-19T02:44:45.317Z,1.60
2018-12-19T02:47:13.462Z,1.60
2018-12-19T02:49:41.637Z,1.40
2018-12-19T02:52:09.824Z,1.40
2018-12-19T02:54:38.004Z,1.50
2018-12-19T02:57:06.152Z,1.50
2018-12-19T02:59:34.333Z,1.50
2018-12-19T03:02:02.485Z,1.60
2018-12-19T03:04:30.661Z,1.70
2018-12-19T03:06:58.816Z,1.60
2018-12-19T03:09:32.944Z,1.40
2018-12-19T03:12:01.276Z,1.40
2018-12-19T03:14:29.444Z,1.50
2018-12-19T03:16:57.868Z,1.50
2018-12-19T03:19:26.114Z,1.60
2018-12-19T03:21:54.477Z,1.70
2018-12-19T03:24:22.657Z,1.70
2018-12-19T03:26:50.809Z,1.70
2018-12-19T03:29:18.981Z,1.60
2018-12-19T03:31:47.134Z,1.50
2018-12-19T03:34:15.304Z,1.50
2018-12-19T03:36:43.465Z,1.60
2018-12-19T03:39:11.653Z,1.70
2018-12-19T03:41:41.511Z,1.50
2018-12-19T03:44:09.705Z,1.60
2018-12-19T03:46:37.856Z,1.70
2018-12-19T03:49:06.005Z,1.50
2018-12-19T03:51:34.532Z,1.40
2018-12-19T03:54:02.680Z,1.20
2018-12-19T03:56:30.856Z,1.50
2018-12-19T03:58:59.004Z,1.60
2018-12-19T04:01:27.286Z,1.60
2018-12-19T04:03:55.429Z,1.50
2018-12-19T04:06:23.601Z,1.70
2018-12-19T04:08:51.760Z,1.70
2018-12-19T04:11:19.938Z,1.60
2018-12-19T04:13:48.093Z,1.60
2018-12-19T04:16:16.264Z,1.70
2018-12-19T04:18:44.427Z,1.80
2018-12-19T04:21:12.623Z,1.70
2018-12-19T04:23:40.777Z,1.60
2018-12-19T04:26:08.956Z,1.60
2018-12-19T04:28:37.113Z,1.60
2018-12-19T04:31:05.332Z,1.70
2018-12-19T04:33:33.480Z,1.70
2018-12-19T04:36:01.657Z,1.80
2018-12-19T04:38:29.968Z,1.80
2018-12-19T04:40:58.143Z,1.70
2018-12-19T04:43:26.297Z,1.70
2018-12-19T04:45:54.465Z,1.80
2018-12-19T04:48:22.616Z,1.70
2018-12-19T04:50:50.900Z,1.60
2018-12-19T04:53:19.057Z,1.50
2018-12-19T04:55:47.229Z,1.60
2018-12-19T04:58:15.384Z,1.70
2018-12-19T05:00:43.611Z,1.70
2018-12-19T05:03:11.832Z,1.70
2018-12-19T05:05:39.999Z,1.70
2018-12-19T05:08:08.152Z,1.80
2018-12-19T05:10:36.327Z,1.40
2018-12-19T05:13:04.490Z,1.30
2018-12-19T05:15:32.709Z,1.50
2018-12-19T05:18:00.862Z,1.60
2018-12-19T05:20:29.201Z,1.70
2018-12-19T05:22:57.352Z,1.60
2018-12-19T05:25:25.523Z,1.70
2018-12-19T05:27:53.684Z,1.40
2018-12-19T05:30:21.970Z,1.60
2018-12-19T05:32:50.117Z,1.70
2018-12-19T05:35:18.334Z,1.70
2018-12-19T05:37:46.490Z,1.80
2018-12-19T05:40:18.887Z,1.70
2018-12-19T05:42:44.837Z,1.80
2018-12-19T05:45:13.012Z,1.70
2018-12-19T05:47:41.166Z,1.70
2018-12-19T05:50:09.744Z,1.70
2018-12-19T05:52:37.893Z,1.80
2018-12-19T05:55:06.192Z,1.70
2018-12-19T05:57:34.951Z,1.80
2018-12-19T06:00:04.384Z,1.70
2018-12-19T06:02:32.560Z,1.70
2018-12-19T06:05:00.730Z,1.70
2018-12-19T06:07:28.988Z,1.70
2018-12-19T06:09:57.140Z,1.60
2018-12-19T06:12:25.316Z,1.50
2018-12-19T06:14:53.472Z,1.70
2018-12-19T06:17:21.647Z,1.80
2018-12-19T06:19:49.792Z,1.90
2018-12-19T06:22:17.977Z,1.80
2018-12-19T06:24:46.120Z,1.60
2018-12-19T06:27:14.290Z,1.50
2018-12-19T06:29:42.562Z,1.70
2018-12-19T06:32:10.731Z,1.70
2018-12-19T06:34:38.885Z,1.70
2018-12-19T06:37:07.067Z,1.60
2018-12-19T06:39:35.252Z,1.40
2018-12-19T06:42:03.432Z,1.70
2018-12-19T06:44:31.585Z,1.70
2018-12-19T06:46:59.752Z,1.70
2018-12-19T06:49:27.908Z,1.80
2018-12-19T06:51:56.100Z,1.80
2018-12-19T06:54:24.240Z,1.70
2018-12-19T06:56:52.417Z,1.60
2018-12-19T06:59:20.648Z,1.70
2018-12-19T07:01:48.821Z,1.70
2018-12-19T07:04:16.977Z,1.60
2018-12-19T07:06:45.142Z,1.50
2018-12-19T07:09:13.583Z,1.60
2018-12-19T07:11:41.762Z,1.70
2018-12-19T07:14:09.916Z,1.70
2018-12-19T07:16:43.442Z,1.60
2018-12-19T07:19:08.320Z,1.50
2018-12-19T07:21:36.497Z,1.50
2018-12-19T07:24:04.711Z,1.50
2018-12-19T07:26:32.884Z,1.40
2018-12-19T07:29:01.205Z,1.60
2018-12-19T07:31:29.376Z,1.70
2018-12-19T07:33:57.529Z,1.80
2018-12-19T07:36:25.703Z,1.60
2018-12-19T07:38:53.888Z,1.60
2018-12-19T07:41:22.060Z,1.50
2018-12-19T07:43:50.216Z,1.40
2018-12-19T07:46:19.945Z,1.50
2018-12-19T07:48:48.365Z,1.50
2018-12-19T07:51:16.538Z,1.50
2018-12-19T07:53:44.688Z,1.60
2018-12-19T07:56:13.253Z,1.60
2018-12-19T07:58:41.476Z,1.70
2018-12-19T08:01:09.697Z,1.90
2018-12-19T08:03:37.848Z,1.70
2018-12-19T08:06:06.028Z,1.70
2018-12-19T08:08:34.257Z,1.70
2018-12-19T08:11:02.435Z,1.70
2018-12-19T08:13:30.585Z,1.70
2018-12-19T08:15:58.774Z,1.70
2018-12-19T08:18:27.037Z,1.80
2018-12-19T08:20:55.196Z,1.90
2018-12-19T08:23:23.363Z,2.00
2018-12-19T08:25:51.524Z,2.00
2018-12-19T08:28:19.701Z,2.00
2018-12-19T08:30:48.136Z,2.00
2018-12-19T08:33:16.578Z,2.10
2018-12-19T08:35:45.083Z,2.10
2018-12-19T08:38:13.368Z,2.10
2018-12-19T08:40:41.520Z,2.10
2018-12-19T08:43:09.696Z,2.20
2018-12-19T08:45:37.852Z,2.20
2018-12-19T08:48:06.056Z,2.10
2018-12-19T08:50:34.211Z,2.10
2018-12-19T08:53:02.400Z,2.20
2018-12-19T08:55:30.548Z,2.20
2018-12-19T08:57:58.727Z,2.70
2018-12-19T09:00:26.877Z,2.50
2018-12-19T09:02:55.052Z,2.20
2018-12-19T09:05:23.200Z,2.30
2018-12-19T09:07:51.532Z,2.30
2018-12-19T09:10:19.745Z,2.40
2018-12-19T09:12:47.913Z,2.50
2018-12-19T09:15:18.065Z,2.40
2018-12-19T09:17:46.356Z,2.30
2018-12-19T09:20:15.068Z,2.20
2018-12-19T09:22:43.352Z,2.20
2018-12-19T09:25:11.811Z,2.40
2018-12-19T09:27:39.972Z,2.40
2018-12-19T09:30:08.469Z,2.50
2018-12-19T09:32:36.657Z,2.40
2018-12-19T09:35:05.357Z,2.50
2018-12-19T09:37:33.568Z,2.70
2018-12-19T09:40:01.718Z,2.70
2018-12-19T09:42:29.953Z,2.70
2018-12-19T09:44:58.137Z,2.70
2018-12-19T09:47:26.433Z,2.70
2018-12-19T09:49:54.594Z,2.60
2018-12-19T09:52:22.762Z,2.60
2018-12-19T09:54:51.021Z,2.50
2018-12-19T09:57:20.060Z,2.50
2018-12-19T09:59:49.080Z,2.60
2018-12-19T10:02:17.316Z,2.50
2018-12-19T10:04:45.567Z,2.60
2018-12-19T10:07:13.729Z,2.50
2018-12-19T10:09:41.876Z,2.50
2018-12-19T10:12:10.048Z,2.60
2018-12-19T10:14:38.216Z,2.80
2018-12-19T10:17:06.424Z,2.90
2018-12-19T10:19:34.580Z,2.90
2018-12-19T10:22:02.756Z,3.00
2018-12-19T10:24:36.588Z,2.70
2018-12-19T10:27:04.765Z,2.80
2018-12-19T10:29:32.924Z,2.90
2018-12-19T10:32:01.097Z,2.70
2018-12-19T10:34:29.255Z,2.80
2018-12-19T10:36:59.060Z,2.90
2018-12-19T10:39:27.220Z,2.90
2018-12-19T10:41:55.398Z,3.10
2018-12-19T10:44:23.560Z,3.00
2018-12-19T10:46:51.773Z,3.00
2018-12-19T10:49:19.923Z,3.10
2018-12-19T10:51:48.100Z,3.00
2018-12-19T10:54:16.254Z,3.10
2018-12-19T10:56:44.440Z,3.10
2018-12-19T10:59:12.621Z,3.20
2018-12-19T11:01:40.772Z,3.10
2018-12-19T11:04:08.943Z,3.20
2018-12-19T11:06:37.088Z,3.10
2018-12-19T11:09:06.896Z,3.00
2018-12-19T11:11:35.050Z,3.20
2018-12-19T11:14:03.296Z,3.20
2018-12-19T11:16:31.496Z,3.20
2018-12-19T11:18:59.700Z,3.30
2018-12-19T11:21:27.853Z,3.50
2018-12-19T11:23:56.108Z,3.60
2018-12-19T11:26:24.888Z,3.50
2018-12-19T11:28:53.064Z,3.60
2018-12-19T11:31:21.229Z,3.60
2018-12-19T11:33:49.400Z,3.60
2018-12-19T11:36:17.573Z,3.60
2018-12-19T11:38:45.751Z,3.50
2018-12-19T11:41:13.909Z,3.70
2018-12-19T11:43:42.079Z,3.70
2018-12-19T11:46:10.236Z,3.60
2018-12-19T11:48:38.406Z,3.70
2018-12-19T11:51:06.569Z,3.50
2018-12-19T11:53:34.745Z,3.70
2018-12-19T11:56:02.921Z,3.70
2018-12-19T11:58:31.097Z,3.90
2018-12-19T12:00:59.312Z,3.70
2018-12-19T12:03:27.485Z,3.80
2018-12-19T12:05:55.666Z,4.00
2018-12-19T12:08:23.840Z,4.00
2018-12-19T12:10:51.996Z,4.00
2018-12-19T12:13:20.164Z,4.00
2018-12-19T12:15:48.317Z,4.10
2018-12-19T12:18:16.501Z,4.10
2018-12-19T12:20:44.652Z,4.10
2018-12-19T12:23:12.830Z,4.10
2018-12-19T12:25:44.207Z,4.10
2018-12-19T12:28:13.378Z,4.10
2018-12-19T12:30:41.758Z,4.20
2018-12-19T12:33:09.936Z,4.20
2018-12-19T12:35:41.517Z,4.30
2018-12-19T12:38:09.684Z,4.30
2018-12-19T12:40:37.844Z,4.20
2018-12-19T12:43:06.017Z,4.00
2018-12-19T12:45:37.272Z,4.10
2018-12-19T12:48:05.491Z,4.00
2018-12-19T12:50:33.702Z,4.10
2018-12-19T12:53:01.936Z,3.90
2018-12-19T12:55:30.093Z,4.10
2018-12-19T12:57:59.201Z,4.40
2018-12-19T13:00:27.354Z,4.50
2018-12-19T13:02:55.583Z,4.50
2018-12-19T13:05:26.884Z,4.50
2018-12-19T13:07:55.054Z,4.80
2018-12-19T13:10:23.204Z,4.80
2018-12-19T13:12:51.395Z,4.90
2018-12-19T13:15:25.322Z,4.90
2018-12-19T13:17:53.560Z,4.80
2018-12-19T13:20:21.719Z,4.80
2018-12-19T13:22:49.894Z,4.70
2018-12-19T13:25:18.068Z,4.70
2018-12-19T13:27:46.229Z,4.50
2018-12-19T13:30:14.384Z,4.60
2018-12-19T13:32:42.537Z,4.50
2018-12-19T13:35:10.712Z,4.40
2018-12-19T13:37:38.908Z,4.40
2018-12-19T13:40:07.518Z,4.30
2018-12-19T13:42:35.742Z,4.40
2018-12-19T13:45:05.057Z,4.50
2018-12-19T13:47:33.213Z,4.40
2018-12-19T13:50:01.391Z,4.40
2018-12-19T13:52:29.544Z,4.50
2018-12-19T13:54:57.724Z,4.70
2018-12-19T13:57:25.877Z,4.70
2018-12-19T13:59:54.049Z,4.80
2018-12-19T14:02:22.208Z,4.70
2018-12-19T14:04:50.538Z,4.80
2018-12-19T14:07:18.777Z,4.80
2018-12-19T14:09:46.950Z,4.90
2018-12-19T14:12:15.106Z,4.70
2018-12-19T14:14:43.319Z,4.50
2018-12-19T14:17:11.468Z,4.50
2018-12-19T14:19:39.640Z,4.40
2018-12-19T14:22:07.792Z,4.50
2018-12-19T14:24:35.980Z,4.60
2018-12-19T14:27:04.207Z,4.60
2018-12-19T14:29:32.373Z,4.50
2018-12-19T14:32:00.523Z,4.40
2018-12-19T14:34:28.692Z,4.40
2018-12-19T14:36:56.845Z,4.40
2018-12-19T14:39:25.013Z,4.50
2018-12-19T14:41:53.176Z,4.50
2018-12-19T14:44:21.424Z,4.60
2018-12-19T14:46:49.580Z,4.20
2018-12-19T14:49:17.755Z,4.10
2018-12-19T14:51:45.900Z,4.10
2018-12-19T14:54:14.112Z,4.10
2018-12-19T14:56:42.348Z,4.10
2018-12-19T14:59:10.528Z,4.20
2018-12-19T15:01:38.686Z,4.30
2018-12-19T15:04:06.852Z,4.10
2018-12-19T15:06:35.010Z,4.10
2018-12-19T15:09:05.091Z,4.10
2018-12-19T15:11:33.243Z,4.00
2018-12-19T15:14:01.500Z,3.90
2018-12-19T15:16:29.702Z,4.00
2018-12-19T15:18:57.864Z,3.80
2018-12-19T15:21:26.012Z,3.90
2018-12-19T15:23:54.298Z,3.90
2018-12-19T15:26:22.539Z,4.30
2018-12-19T15:28:50.713Z,4.50
2018-12-19T15:31:18.868Z,4.20
2018-12-19T15:33:47.052Z,3.90
2018-12-19T15:36:15.469Z,3.80
2018-12-19T15:38:43.642Z,3.80
2018-12-19T15:41:11.800Z,3.70
2018-12-19T15:43:39.976Z,3.70
2018-12-19T15:46:08.143Z,3.70
2018-12-19T15:48:36.313Z,3.50
2018-12-19T15:51:04.466Z,3.50
2018-12-19T15:53:32.684Z,3.50
2018-12-19T15:56:00.868Z,3.60
2018-12-19T15:58:29.012Z,3.60
2018-12-19T16:00:57.261Z,3.50
2018-12-19T16:03:25.536Z,3.50
2018-12-19T16:05:53.704Z,3.20
2018-12-19T16:08:21.888Z,3.20
2018-12-19T16:10:50.149Z,3.20
2018-12-19T16:13:18.326Z,3.40
2018-12-19T16:15:46.502Z,3.40
2018-12-19T16:18:15.296Z,3.40
2018-12-19T16:20:43.464Z,3.50
2018-12-19T16:23:11.736Z,3.50
2018-12-19T16:25:39.911Z,3.50
2018-12-19T16:28:08.060Z,3.30
2018-12-19T16:30:36.237Z,3.20
2018-12-19T16:33:04.440Z,3.30
2018-12-19T16:35:32.690Z,3.40
2018-12-19T16:38:00.911Z,3.30
2018-12-19T16:40:29.081Z,3.30
2018-12-19T16:42:57.236Z,3.30
2018-12-19T16:45:25.711Z,3.50
2018-12-19T16:47:53.936Z,3.60
2018-12-19T16:50:22.107Z,3.70
2018-12-19T16:52:50.260Z,3.60
2018-12-19T16:55:18.440Z,3.60
2018-12-19T16:57:46.598Z,3.60
2018-12-19T17:00:14.961Z,3.60
2018-12-19T17:02:43.253Z,3.80
2018-12-19T17:05:11.617Z,3.70
2018-12-19T17:07:39.776Z,3.80
2018-12-19T17:10:08.101Z,3.80
2018-12-19T17:12:36.248Z,3.80
2018-12-19T17:15:05.071Z,3.80
2018-12-19T17:17:33.511Z,3.90
2018-12-19T17:20:01.889Z,3.90
2018-12-19T17:22:30.029Z,3.80
2018-12-19T17:24:58.232Z,3.80
2018-12-19T17:27:26.388Z,3.80
2018-12-19T17:29:54.571Z,3.80
2018-12-19T17:32:23.370Z,3.80
2018-12-19T17:34:51.549Z,3.80
2018-12-19T17:37:19.697Z,3.80
2018-12-19T17:39:47.873Z,3.70
2018-12-19T17:42:16.192Z,3.70
2018-12-19T17:44:44.368Z,3.80
2018-12-19T17:47:12.600Z,3.80
2018-12-19T17:49:40.776Z,3.90
2018-12-19T17:52:08.931Z,4.00
2018-12-19T17:54:37.108Z,4.00
2018-12-19T17:57:05.269Z,4.00
2018-12-19T17:59:33.451Z,4.10
2018-12-19T18:02:01.752Z,4.40
2018-12-19T18:04:29.944Z,4.30
2018-12-19T18:06:58.096Z,4.30
2018-12-19T18:09:26.276Z,4.20
2018-12-19T18:11:54.476Z,4.10
2018-12-19T18:14:22.634Z,4.10
2018-12-19T18:16:50.815Z,4.10
2018-12-19T18:19:23.357Z,4.00
2018-12-19T18:21:49.180Z,4.10
2018-12-19T18:24:17.332Z,4.00
2018-12-19T18:26:45.505Z,4.00
2018-12-19T18:29:13.661Z,4.00
2018-12-19T18:31:41.943Z,3.90
2018-12-19T18:34:10.088Z,4.00
2018-12-19T18:36:38.329Z,4.00
2018-12-19T18:39:08.329Z,3.90
2018-12-19T18:41:36.682Z,3.80
2018-12-19T18:44:04.842Z,3.70
2018-12-19T18:46:33.004Z,3.80
2018-12-19T18:49:01.169Z,3.70
2018-12-19T18:51:29.355Z,3.70
2018-12-19T18:53:57.504Z,3.70
2018-12-19T18:56:25.687Z,3.60
2018-12-19T18:58:53.837Z,3.60
2018-12-19T19:01:22.073Z,3.70
2018-12-19T19:03:50.514Z,3.70
2018-12-19T19:06:18.799Z,3.70
2018-12-19T19:08:47.097Z,3.60
2018-12-19T19:11:15.391Z,3.70
2018-12-19T19:13:43.528Z,3.70
2018-12-19T19:16:11.707Z,3.80
2018-12-19T19:18:39.864Z,3.70
2018-12-19T19:21:08.184Z,3.70
2018-12-19T19:23:36.333Z,3.80
2018-12-19T19:26:04.592Z,3.80
2018-12-19T19:28:32.740Z,3.70
2018-12-19T19:31:00.917Z,3.80
2018-12-19T19:33:29.069Z,3.80
2018-12-19T19:35:57.240Z,3.80
2018-12-19T19:38:25.394Z,3.80
2018-12-19T19:40:53.691Z,3.80
2018-12-19T19:43:26.534Z,3.70
2018-12-19T19:45:52.095Z,3.70
2018-12-19T19:48:20.253Z,3.70
2018-12-19T19:50:48.427Z,3.70
2018-12-19T19:53:16.581Z,3.60
2018-12-19T19:55:44.748Z,3.60
2018-12-19T19:58:12.900Z,3.60
2018-12-19T20:00:41.081Z,3.40
2018-12-19T20:03:09.241Z,3.50
2018-12-19T20:05:37.416Z,3.50
2018-12-19T20:08:05.564Z,3.50
2018-12-19T20:10:33.744Z,3.60
2018-12-19T20:13:01.896Z,3.40
2018-12-19T20:15:30.070Z,3.50
2018-12-19T20:17:58.301Z,3.60
2018-12-19T20:20:26.472Z,3.60
2018-12-19T20:26:13.150Z,3.50
2018-12-19T20:28:41.309Z,3.40
2018-12-19T20:31:09.548Z,3.40
2018-12-19T20:33:37.701Z,3.40
2018-12-19T20:36:05.881Z,3.40
2018-12-19T20:38:34.045Z,3.30
2018-12-19T20:41:02.218Z,3.30
2018-12-19T20:43:30.360Z,3.40
2018-12-19T20:45:58.544Z,3.50
2018-12-19T20:48:26.694Z,3.60
2018-12-19T20:50:54.868Z,3.60
2018-12-19T20:53:23.134Z,3.50
2018-12-19T20:55:51.295Z,3.40
2018-12-19T20:58:19.637Z,3.50
2018-12-19T21:00:47.823Z,3.50
2018-12-19T21:03:15.969Z,3.50
2018-12-19T21:05:44.140Z,3.50
2018-12-19T21:08:12.297Z,3.50
2018-12-19T21:10:40.576Z,3.50
2018-12-19T21:13:08.817Z,3.40
2018-12-19T21:15:36.989Z,3.50
2018-12-19T21:18:10.812Z,3.30
2018-12-19T21:20:39.413Z,3.50
2018-12-19T21:23:07.564Z,3.50
2018-12-19T21:25:35.725Z,3.40
2018-12-19T21:28:04.075Z,3.40
2018-12-19T21:30:32.242Z,3.40
2018-12-19T21:33:00.417Z,3.50
2018-12-19T21:35:28.632Z,3.50
2018-12-19T21:37:56.807Z,3.50
2018-12-19T21:40:25.270Z,3.50
2018-12-19T21:42:53.456Z,3.50
2018-12-19T21:45:21.600Z,3.50
2018-12-19T21:47:49.777Z,3.40
2018-12-19T21:50:19.432Z,3.30
2018-12-19T21:52:47.746Z,3.40
2018-12-19T21:55:16.094Z,3.50
2018-12-19T21:57:44.332Z,3.50
2018-12-19T22:00:17.296Z,3.60
2018-12-19T22:02:45.459Z,3.70
2018-12-19T22:05:13.642Z,3.60
2018-12-19T22:07:41.960Z,3.40
2018-12-19T22:10:10.171Z,3.40
2018-12-19T22:12:38.336Z,3.40
2018-12-19T22:15:06.586Z,3.50
2018-12-19T22:17:40.419Z,3.40
2018-12-19T22:20:08.806Z,3.40
2018-12-19T22:22:37.024Z,3.40
2018-12-19T22:25:05.351Z,3.40
2018-12-19T22:27:33.621Z,3.40
2018-12-19T22:30:01.864Z,3.50
2018-12-19T22:32:30.088Z,3.50
2018-12-19T22:34:58.239Z,3.60
2018-12-19T22:37:26.417Z,3.50
2018-12-19T22:39:54.586Z,3.40
2018-12-19T22:42:22.777Z,3.50
2018-12-19T22:44:50.928Z,3.50
2018-12-19T22:47:19.143Z,3.50
2018-12-19T22:49:47.391Z,3.50
2018-12-19T22:52:15.639Z,3.50
2018-12-19T22:54:43.780Z,3.60
2018-12-19T22:57:12.028Z,3.50
2018-12-19T22:59:40.288Z,3.50
2018-12-19T23:02:14.417Z,3.50
2018-12-19T23:04:42.571Z,3.50
2018-12-19T23:07:10.801Z,3.60
2018-12-19T23:09:39.128Z,3.50
2018-12-19T23:12:07.400Z,3.60
2018-12-19T23:14:35.672Z,3.60
2018-12-19T23:17:05.938Z,3.60
2018-12-19T23:19:34.274Z,3.50
2018-12-19T23:22:02.576Z,3.40
2018-12-19T23:24:30.786Z,3.40
2018-12-19T23:26:59.018Z,3.50
2018-12-19T23:29:27.397Z,3.40
2018-12-19T23:31:55.668Z,3.30
2018-12-19T23:34:23.825Z,3.50
2018-12-19T23:36:52.272Z,3.40
2018-12-19T23:39:20.606Z,3.40
2018-12-19T23:41:48.938Z,3.40
2018-12-19T23:44:22.515Z,3.50
2018-12-19T23:46:49.664Z,3.50
2018-12-19T23:49:17.863Z,3.60
2018-12-19T23:51:46.109Z,3.40
2018-12-19T23:54:14.287Z,3.30
2018-12-19T23:56:42.505Z,3.20
2018-12-19T23:59:10.733Z,3.30
